Time;durP1;ratioP1;P1;durP2;ratioP2;P2;SDS_P1;SDS_P2;PMS_P1;PMS_P2;Temp;Humidity;BMP_temperature;BMP_pressure;BME280_temperature;BME280_humidity;BME280_pressure;Samples;Min_cycle;Max_cycle;Signal;HPM_P1;HPM_P2
2023/08/27 00:00:28;;;;;;;0.10;0.10;;;14.70;99.90;;;;;;5031591;28;20056;-81
2023/08/27 00:02:54;;;;;;;0.10;0.10;;;14.70;99.90;;;;;;5047486;28;20036;-81
2023/08/27 00:05:20;;;;;;;0.10;0.10;;;14.70;99.90;;;;;;5028730;28;20804;-81
2023/08/27 00:07:46;;;;;;;0.10;0.10;;;14.70;99.90;;;;;;5048859;28;20048;-81
2023/08/27 00:10:12;;;;;;;0.15;0.15;;;14.60;99.90;;;;;;5048252;28;20045;-80
2023/08/27 00:12:37;;;;;;;0.17;0.17;;;14.70;99.90;;;;;;5042672;28;20048;-81
2023/08/27 00:15:04;;;;;;;0.10;0.10;;;14.70;99.90;;;;;;5021188;28;20041;-80
2023/08/27 00:17:30;;;;;;;0.15;0.15;;;14.60;99.90;;;;;;5025490;28;20052;-82
2023/08/27 00:19:55;;;;;;;0.17;0.17;;;14.70;99.90;;;;;;5026777;28;20087;-81
2023/08/27 00:22:21;;;;;;;0.10;0.10;;;14.60;99.90;;;;;;5012183;28;20136;-81
2023/08/27 00:24:47;;;;;;;0.20;0.20;;;14.70;99.90;;;;;;5027435;28;20051;-81
2023/08/27 00:27:13;;;;;;;0.20;0.20;;;14.60;99.90;;;;;;5049520;28;20095;-81
2023/08/27 00:29:38;;;;;;;0.10;0.10;;;14.60;99.90;;;;;;5033751;28;20047;-81
2023/08/27 00:32:05;;;;;;;0.10;0.10;;;14.70;99.90;;;;;;5046357;28;20471;-81
2023/08/27 00:34:34;;;;;;;0.20;0.20;;;14.60;99.90;;;;;;5031027;28;20037;-81
2023/08/27 00:37:01;;;;;;;0.20;0.20;;;14.60;99.90;;;;;;5029474;28;20068;-80
2023/08/27 00:39:28;;;;;;;0.20;0.20;;;14.60;99.90;;;;;;5030526;28;20037;-81
2023/08/27 00:41:54;;;;;;;0.10;0.10;;;14.60;99.90;;;;;;5032031;28;20049;-81
2023/08/27 00:44:20;;;;;;;0.20;0.20;;;14.60;99.90;;;;;;5052565;28;20148;-81
2023/08/27 00:46:49;;;;;;;0.10;0.10;;;14.60;99.90;;;;;;5032093;28;20067;-81
2023/08/27 00:49:15;;;;;;;0.10;0.10;;;14.60;99.90;;;;;;5050845;28;20033;-81
2023/08/27 00:51:44;;;;;;;0.20;0.20;;;14.60;99.90;;;;;;5033631;28;20392;-80
2023/08/27 00:54:10;;;;;;;0.45;0.20;;;14.50;99.90;;;;;;5033383;28;20041;-80
2023/08/27 00:56:36;;;;;;;0.10;0.10;;;14.50;99.90;;;;;;5023690;28;20056;-81
2023/08/27 00:59:02;;;;;;;0.10;0.10;;;14.50;99.90;;;;;;5027089;28;20049;-81
2023/08/27 01:01:29;;;;;;;0.20;0.20;;;14.50;99.90;;;;;;5051251;28;20090;-81
2023/08/27 01:03:54;;;;;;;0.10;0.10;;;14.50;99.90;;;;;;5026916;28;20053;-81
2023/08/27 01:06:21;;;;;;;0.10;0.10;;;14.40;99.90;;;;;;5027159;28;20124;-81
2023/08/27 01:09:13;;;;;;;0.10;0.10;;;14.40;99.90;;;;;;5029916;28;20056;-81
2023/08/27 01:11:52;;;;;;;0.10;0.10;;;14.40;99.90;;;;;;5020591;28;20487;-81
2023/08/27 01:14:20;;;;;;;0.10;0.10;;;14.40;99.90;;;;;;5028926;28;20552;-81
2023/08/27 01:16:48;;;;;;;0.10;0.10;;;14.40;99.90;;;;;;5011923;28;20068;-81
2023/08/27 01:19:15;;;;;;;0.20;0.20;;;14.40;99.90;;;;;;5022951;28;20104;-81
2023/08/27 01:21:44;;;;;;;0.10;0.10;;;14.30;99.90;;;;;;5029359;28;20046;-81
2023/08/27 01:24:11;;;;;;;0.20;0.20;;;14.30;99.90;;;;;;5011844;28;20041;-80
2023/08/27 01:26:49;;;;;;;0.20;0.20;;;14.30;99.90;;;;;;5025475;28;20037;-81
2023/08/27 01:29:35;;;;;;;0.10;0.10;;;14.40;99.90;;;;;;5030311;28;20351;-80
2023/08/27 01:32:23;;;;;;;0.20;0.20;;;14.30;99.90;;;;;;5029706;28;20491;-81
2023/08/27 01:34:49;;;;;;;0.20;0.20;;;14.30;99.90;;;;;;5024373;28;20046;-80
2023/08/27 01:37:15;;;;;;;0.20;0.20;;;14.30;99.90;;;;;;5025968;28;20041;-80
2023/08/27 01:39:44;;;;;;;0.10;0.10;;;14.20;99.90;;;;;;5026418;28;20072;-81
2023/08/27 01:42:11;;;;;;;0.20;0.20;;;14.30;99.90;;;;;;5024242;28;20971;-80
2023/08/27 01:44:36;;;;;;;0.15;0.15;;;14.20;99.90;;;;;;5025671;28;20057;-81
2023/08/27 01:47:03;;;;;;;0.20;0.20;;;14.30;99.90;;;;;;5027132;28;20041;-81
2023/08/27 01:49:29;;;;;;;0.10;0.10;;;14.30;99.90;;;;;;5025779;28;20533;-80
2023/08/27 01:51:55;;;;;;;0.10;0.10;;;14.30;99.90;;;;;;5026362;28;20046;-81
2023/08/27 01:54:20;;;;;;;0.10;0.10;;;14.30;99.90;;;;;;5022946;28;20580;-81
2023/08/27 01:56:46;;;;;;;0.10;0.10;;;14.20;99.90;;;;;;5026077;28;20147;-81
2023/08/27 01:59:11;;;;;;;0.10;0.10;;;14.20;99.90;;;;;;5026596;28;20052;-81
2023/08/27 02:01:37;;;;;;;0.10;0.10;;;14.20;99.90;;;;;;5025934;28;20041;-81
2023/08/27 02:04:03;;;;;;;0.10;0.10;;;14.20;99.90;;;;;;5023236;28;20045;-80
2023/08/27 02:06:29;;;;;;;0.10;0.10;;;14.20;99.90;;;;;;5026031;28;20049;-81
2023/08/27 02:08:55;;;;;;;0.10;0.10;;;14.20;99.90;;;;;;5025425;28;20386;-81
2023/08/27 02:11:21;;;;;;;0.10;0.10;;;14.10;99.90;;;;;;5025658;28;20056;-81
2023/08/27 02:13:47;;;;;;;0.20;0.20;;;14.10;99.90;;;;;;5027157;28;20055;-81
2023/08/27 02:16:12;;;;;;;0.10;0.10;;;14.10;99.90;;;;;;5018260;28;20030;-80
2023/08/27 02:18:38;;;;;;;0.20;0.20;;;14.10;99.90;;;;;;5024557;28;20103;-81
2023/08/27 02:21:04;;;;;;;0.20;0.20;;;14.00;99.90;;;;;;5024271;28;20037;-81
2023/08/27 02:23:30;;;;;;;0.10;0.10;;;14.10;99.90;;;;;;5026605;28;20170;-81
2023/08/27 02:25:55;;;;;;;0.15;0.15;;;14.00;99.90;;;;;;5027959;28;20046;-80
2023/08/27 02:28:21;;;;;;;0.10;0.10;;;14.00;99.90;;;;;;5027545;28;20048;-80
2023/08/27 02:30:53;;;;;;;0.20;0.20;;;14.00;99.90;;;;;;5022800;28;20048;-80
2023/08/27 02:33:18;;;;;;;0.10;0.10;;;14.00;99.90;;;;;;5026443;28;20041;-81
2023/08/27 02:35:44;;;;;;;0.20;0.20;;;14.00;99.90;;;;;;5026078;28;20474;-80
2023/08/27 02:38:10;;;;;;;0.10;0.10;;;14.00;99.90;;;;;;5022837;28;20030;-80
2023/08/27 02:40:35;;;;;;;0.20;0.20;;;14.10;99.90;;;;;;5021715;28;20116;-81
2023/08/27 02:43:03;;;;;;;0.20;0.20;;;14.00;99.90;;;;;;5025408;28;20057;-80
2023/08/27 02:45:28;;;;;;;0.10;0.10;;;14.00;99.90;;;;;;5022334;28;20056;-80
2023/08/27 02:47:54;;;;;;;0.20;0.20;;;14.00;99.90;;;;;;5024546;28;20041;-81
2023/08/27 02:50:20;;;;;;;0.10;0.10;;;14.00;99.90;;;;;;5026160;28;20124;-80
2023/08/27 02:52:46;;;;;;;0.10;0.10;;;14.00;99.90;;;;;;5026862;28;20571;-80
2023/08/27 02:55:11;;;;;;;0.10;0.10;;;14.00;99.90;;;;;;5028141;28;20045;-81
2023/08/27 02:57:37;;;;;;;0.13;0.13;;;14.00;99.90;;;;;;5025340;28;20034;-81
2023/08/27 03:00:04;;;;;;;0.20;0.20;;;14.00;99.90;;;;;;5019819;28;20120;-80
2023/08/27 03:02:29;;;;;;;0.10;0.10;;;13.90;99.90;;;;;;5025543;28;20044;-81
2023/08/27 03:04:56;;;;;;;0.10;0.10;;;13.90;99.90;;;;;;5044401;28;20155;-81
2023/08/27 03:07:23;;;;;;;0.17;0.17;;;13.90;99.90;;;;;;5028654;28;20870;-81
2023/08/27 03:09:48;;;;;;;0.10;0.10;;;13.90;99.90;;;;;;5029110;28;20040;-81
2023/08/27 03:12:14;;;;;;;0.10;0.10;;;13.90;99.90;;;;;;5043335;28;20044;-81
2023/08/27 03:14:40;;;;;;;0.10;0.10;;;13.90;99.90;;;;;;5030233;28;20037;-80
2023/08/27 03:17:06;;;;;;;0.13;0.13;;;13.90;99.90;;;;;;5045782;28;20044;-81
2023/08/27 03:19:32;;;;;;;0.10;0.10;;;13.90;99.90;;;;;;5027860;28;20052;-80
2023/08/27 03:21:58;;;;;;;0.15;0.15;;;13.80;99.90;;;;;;5026446;28;20122;-81
2023/08/27 03:24:23;;;;;;;0.10;0.10;;;13.80;99.90;;;;;;5048219;28;20374;-81
2023/08/27 03:26:49;;;;;;;0.10;0.10;;;13.70;99.90;;;;;;5048033;28;20090;-81
2023/08/27 03:29:15;;;;;;;0.10;0.10;;;13.70;99.90;;;;;;5028196;28;20046;-80
2023/08/27 03:31:41;;;;;;;0.10;0.10;;;13.70;99.90;;;;;;5030303;28;20055;-80
2023/08/27 03:34:07;;;;;;;0.10;0.10;;;13.60;99.90;;;;;;5027661;28;20037;-80
2023/08/27 03:36:32;;;;;;;0.10;0.10;;;13.70;99.90;;;;;;5040324;28;20041;-80
2023/08/27 03:38:58;;;;;;;0.10;0.10;;;13.60;99.90;;;;;;5027424;28;20037;-81
2023/08/27 03:41:24;;;;;;;0.10;0.10;;;13.60;99.90;;;;;;5027046;28;20045;-80
2023/08/27 03:43:49;;;;;;;0.10;0.10;;;13.60;99.90;;;;;;5029278;28;20397;-80
2023/08/27 03:46:15;;;;;;;0.20;0.20;;;13.60;99.90;;;;;;5046756;28;20045;-81
2023/08/27 03:48:40;;;;;;;0.15;0.15;;;13.60;99.90;;;;;;5028752;28;20041;-81
2023/08/27 03:51:06;;;;;;;0.20;0.20;;;13.60;99.90;;;;;;5025769;28;20091;-80
2023/08/27 03:53:32;;;;;;;0.20;0.20;;;13.60;99.90;;;;;;5028527;28;20040;-80
2023/08/27 03:56:04;;;;;;;0.20;0.20;;;13.60;99.90;;;;;;5045002;28;20039;-80
2023/08/27 03:58:31;;;;;;;0.10;0.10;;;13.60;99.90;;;;;;5024496;28;20037;-80
2023/08/27 04:00:56;;;;;;;0.10;0.10;;;13.80;99.90;;;;;;5031344;28;20518;-81
2023/08/27 04:03:22;;;;;;;0.20;0.20;;;13.70;99.90;;;;;;5025120;28;20085;-81
2023/08/27 04:05:49;;;;;;;0.20;0.20;;;13.60;99.90;;;;;;5028395;28;20121;-81
2023/08/27 04:08:15;;;;;;;0.10;0.10;;;13.70;99.90;;;;;;5027995;28;20034;-81
2023/08/27 04:11:09;;;;;;;0.10;0.10;;;13.60;99.90;;;;;;5020327;28;20382;-80
2023/08/27 04:13:35;;;;;;;0.10;0.10;;;13.60;99.90;;;;;;5018857;28;20111;-80
2023/08/27 04:16:06;;;;;;;0.10;0.10;;;13.70;99.90;;;;;;5027492;28;20050;-81
2023/08/27 04:18:35;;;;;;;;;;;13.70;99.90;;;;;;5026882;28;20094;-81
2023/08/27 04:21:01;;;;;;;0.10;0.10;;;13.80;99.90;;;;;;5023314;28;19922;-81
2023/08/27 04:23:27;;;;;;;0.13;0.13;;;13.80;99.90;;;;;;5031535;28;20559;-81
2023/08/27 04:25:53;;;;;;;0.10;0.10;;;13.80;99.90;;;;;;5028099;28;20045;-80
2023/08/27 04:28:20;;;;;;;0.10;0.10;;;13.80;99.90;;;;;;5022952;28;20612;-80
2023/08/27 04:30:49;;;;;;;0.20;0.20;;;13.80;99.90;;;;;;5030079;28;20049;-80
2023/08/27 04:33:15;;;;;;;0.10;0.10;;;13.80;99.90;;;;;;5029015;28;20095;-80
2023/08/27 04:35:42;;;;;;;0.15;0.15;;;13.80;99.90;;;;;;5028822;28;20090;-81
2023/08/27 04:38:08;;;;;;;0.10;0.10;;;13.70;99.90;;;;;;5027382;28;20067;-80
2023/08/27 04:40:34;;;;;;;0.10;0.10;;;13.80;99.90;;;;;;5026401;28;20107;-80
2023/08/27 04:43:00;;;;;;;0.20;0.20;;;13.80;99.90;;;;;;5024721;28;20425;-80
2023/08/27 04:45:26;;;;;;;0.20;0.20;;;13.80;99.90;;;;;;5020648;28;20048;-80
2023/08/27 04:47:51;;;;;;;0.10;0.10;;;13.80;99.90;;;;;;5020445;28;20183;-80
2023/08/27 04:50:17;;;;;;;0.10;0.10;;;13.80;99.90;;;;;;5021416;28;20579;-80
2023/08/27 04:52:43;;;;;;;0.10;0.10;;;13.80;99.90;;;;;;5027096;28;20128;-80
2023/08/27 04:55:09;;;;;;;0.17;0.17;;;13.70;99.90;;;;;;5024447;28;20037;-79
2023/08/27 04:57:36;;;;;;;0.10;0.10;;;13.70;99.90;;;;;;5029356;28;20052;-80
2023/08/27 05:00:19;;;;;;;0.10;0.10;;;13.70;99.90;;;;;;5025496;28;20049;-80
2023/08/27 05:02:46;;;;;;;0.20;0.20;;;13.70;99.90;;;;;;5017625;28;20060;-79
2023/08/27 05:05:12;;;;;;;0.10;0.10;;;13.80;99.90;;;;;;5025278;28;20122;-80
2023/08/27 05:07:38;;;;;;;0.10;0.10;;;13.70;99.90;;;;;;5047740;28;20120;-80
2023/08/27 05:10:04;;;;;;;0.20;0.20;;;13.70;99.90;;;;;;5022669;28;20187;-80
2023/08/27 05:12:31;;;;;;;0.10;0.10;;;13.80;99.90;;;;;;5030285;28;20052;-81
2023/08/27 05:14:56;;;;;;;0.20;0.20;;;13.70;99.90;;;;;;5030185;28;20437;-81
2023/08/27 05:17:22;;;;;;;0.17;0.17;;;13.70;99.90;;;;;;5045743;28;20686;-80
2023/08/27 05:19:48;;;;;;;0.20;0.20;;;13.70;99.90;;;;;;5042823;28;20392;-80
2023/08/27 05:22:13;;;;;;;0.10;0.10;;;13.70;99.90;;;;;;5029573;28;20045;-80
2023/08/27 05:24:39;;;;;;;0.15;0.15;;;13.70;99.90;;;;;;5030556;28;20052;-81
2023/08/27 05:27:05;;;;;;;0.20;0.20;;;13.70;99.90;;;;;;5048718;28;20045;-81
2023/08/27 05:29:30;;;;;;;0.20;0.20;;;13.80;99.90;;;;;;5030945;28;20037;-81
2023/08/27 05:31:56;;;;;;;0.10;0.10;;;13.80;99.90;;;;;;5028988;28;20123;-81
2023/08/27 05:34:23;;;;;;;0.10;0.10;;;13.80;99.90;;;;;;5048563;28;20044;-81
2023/08/27 05:36:48;;;;;;;0.10;0.10;;;13.80;99.90;;;;;;5047976;28;20044;-81
2023/08/27 05:39:14;;;;;;;0.20;0.20;;;13.80;99.90;;;;;;5048550;28;20051;-81
2023/08/27 05:41:40;;;;;;;0.15;0.15;;;13.80;99.90;;;;;;5028682;28;20556;-82
2023/08/27 05:44:06;;;;;;;0.20;0.20;;;13.80;99.90;;;;;;5029162;28;20052;-81
2023/08/27 05:46:32;;;;;;;0.13;0.13;;;13.80;99.90;;;;;;5028948;28;20063;-80
2023/08/27 05:48:57;;;;;;;0.10;0.10;;;13.90;99.90;;;;;;5027406;28;20396;-81
2023/08/27 05:51:23;;;;;;;0.10;0.10;;;13.80;99.90;;;;;;5029328;28;20056;-80
2023/08/27 05:53:49;;;;;;;0.20;0.20;;;13.80;99.90;;;;;;5028904;28;20815;-80
2023/08/27 05:56:14;;;;;;;0.10;0.10;;;14.00;99.90;;;;;;5022854;28;20114;-81
2023/08/27 05:58:40;;;;;;;0.20;0.20;;;13.90;99.90;;;;;;5023594;28;20076;-81
2023/08/27 06:01:05;;;;;;;0.20;0.20;;;14.00;99.90;;;;;;5026509;28;20063;-81
2023/08/27 06:03:31;;;;;;;0.10;0.10;;;14.00;99.90;;;;;;5041529;28;20049;-81
2023/08/27 06:05:57;;;;;;;0.10;0.10;;;14.10;99.90;;;;;;5026395;28;20050;-81
2023/08/27 06:08:23;;;;;;;0.20;0.20;;;14.10;99.90;;;;;;5027171;28;20041;-81
2023/08/27 06:10:48;;;;;;;0.17;0.17;;;14.10;99.90;;;;;;5041725;28;20550;-81
2023/08/27 06:13:14;;;;;;;0.10;0.10;;;14.10;99.90;;;;;;5045838;28;20037;-81
2023/08/27 06:15:40;;;;;;;0.10;0.10;;;14.20;99.90;;;;;;5027716;28;20066;-81
2023/08/27 06:18:07;;;;;;;0.20;0.20;;;14.10;99.90;;;;;;5020808;28;20060;-81
2023/08/27 06:20:33;;;;;;;0.10;0.10;;;14.20;99.90;;;;;;5019050;28;20044;-81
2023/08/27 06:22:59;;;;;;;0.10;0.10;;;14.30;99.90;;;;;;5028729;28;20047;-81
2023/08/27 06:25:25;;;;;;;0.10;0.10;;;14.20;99.90;;;;;;5023389;28;20051;-80
2023/08/27 06:27:58;;;;;;;0.13;0.13;;;14.30;99.90;;;;;;5024109;28;20045;-80
2023/08/27 06:30:23;;;;;;;0.20;0.20;;;14.30;99.90;;;;;;5024341;28;20051;-81
2023/08/27 06:32:49;;;;;;;0.10;0.10;;;14.40;99.90;;;;;;5024950;28;20048;-80
2023/08/27 06:35:15;;;;;;;0.20;0.20;;;14.80;99.90;;;;;;5044074;28;20041;-81
2023/08/27 06:37:44;;;;;;;0.10;0.10;;;14.50;99.90;;;;;;5046264;28;20510;-81
2023/08/27 06:40:12;;;;;;;0.20;0.20;;;14.50;99.90;;;;;;5043618;28;20045;-80
2023/08/27 06:42:38;;;;;;;0.10;0.10;;;14.50;99.90;;;;;;5027463;28;20037;-80
2023/08/27 06:45:04;;;;;;;0.10;0.10;;;14.50;99.90;;;;;;5039949;28;20096;-80
2023/08/27 06:47:30;;;;;;;0.10;0.10;;;14.60;99.90;;;;;;5025612;28;20044;-80
2023/08/27 06:49:56;;;;;;;0.17;0.17;;;14.60;99.90;;;;;;5028076;28;20037;-80
2023/08/27 06:52:22;;;;;;;0.20;0.20;;;14.50;99.90;;;;;;5026940;28;20060;-81
2023/08/27 06:54:47;;;;;;;0.20;0.20;;;14.50;99.90;;;;;;5028424;28;20037;-81
2023/08/27 06:57:13;;;;;;;0.10;0.10;;;14.60;99.90;;;;;;5027318;28;20611;-83
2023/08/27 06:59:38;;;;;;;0.10;0.10;;;14.60;99.90;;;;;;5043603;28;20049;-80
2023/08/27 07:02:04;;;;;;;0.20;0.20;;;14.60;99.90;;;;;;5026180;28;20136;-82
2023/08/27 07:04:31;;;;;;;0.15;0.15;;;14.70;99.90;;;;;;5023155;28;20069;-81
2023/08/27 07:06:57;;;;;;;0.20;0.20;;;14.60;99.90;;;;;;5025796;28;20045;-81
2023/08/27 07:09:23;;;;;;;0.17;0.17;;;14.60;99.90;;;;;;5022502;28;20045;-81
2023/08/27 07:11:48;;;;;;;0.20;0.20;;;14.70;99.90;;;;;;5045462;28;20135;-79
2023/08/27 07:14:14;;;;;;;0.20;0.20;;;14.70;99.90;;;;;;5029763;28;20052;-79
2023/08/27 07:16:40;;;;;;;0.10;0.10;;;14.70;99.90;;;;;;5028911;28;20106;-78
2023/08/27 07:19:05;;;;;;;0.20;0.20;;;14.70;99.90;;;;;;5029595;28;20544;-79
2023/08/27 07:21:31;;;;;;;0.20;0.20;;;14.70;99.90;;;;;;5025969;28;20060;-78
2023/08/27 07:23:57;;;;;;;0.10;0.10;;;14.70;99.90;;;;;;5048312;28;20043;-78
2023/08/27 07:26:22;;;;;;;0.10;0.10;;;14.70;99.90;;;;;;5026694;28;20044;-80
2023/08/27 07:28:48;;;;;;;0.17;0.17;;;14.70;99.90;;;;;;5029539;28;20148;-78
2023/08/27 07:31:14;;;;;;;0.20;0.20;;;14.80;99.90;;;;;;5044952;28;20041;-79
2023/08/27 07:33:40;;;;;;;0.10;0.10;;;14.80;99.90;;;;;;5044365;28;21095;-79
2023/08/27 07:36:05;;;;;;;0.10;0.10;;;14.90;99.90;;;;;;5028429;28;20087;-80
2023/08/27 07:38:31;;;;;;;0.10;0.10;;;14.90;99.90;;;;;;5031150;28;20039;-80
2023/08/27 07:40:57;;;;;;;0.10;0.10;;;15.00;99.90;;;;;;5030287;28;20041;-80
2023/08/27 07:43:23;;;;;;;0.10;0.10;;;15.00;99.90;;;;;;5048901;28;20036;-80
2023/08/27 07:45:48;;;;;;;0.20;0.20;;;15.00;99.90;;;;;;5028383;28;20477;-80
2023/08/27 07:48:14;;;;;;;0.10;0.10;;;15.10;99.90;;;;;;5030946;28;20052;-80
2023/08/27 07:50:40;;;;;;;0.20;0.20;;;15.10;99.90;;;;;;5030836;28;20037;-80
2023/08/27 07:53:05;;;;;;;0.20;0.20;;;15.10;99.90;;;;;;5050662;28;20044;-80
2023/08/27 07:55:34;;;;;;;0.20;0.20;;;15.00;99.90;;;;;;5026750;28;20033;-80
2023/08/27 07:58:00;;;;;;;0.10;0.10;;;15.10;99.90;;;;;;5031011;28;20040;-78
2023/08/27 08:00:26;;;;;;;0.10;0.10;;;15.00;99.90;;;;;;5029065;28;20060;-79
2023/08/27 08:02:52;;;;;;;0.20;0.20;;;15.10;99.90;;;;;;5027108;28;20136;-79
2023/08/27 08:05:17;;;;;;;0.20;0.20;;;15.00;99.90;;;;;;5042459;28;20051;-79
2023/08/27 08:07:43;;;;;;;0.20;0.20;;;15.00;99.90;;;;;;5026759;28;20040;-80
2023/08/27 08:10:08;;;;;;;0.10;0.10;;;15.00;99.90;;;;;;5025285;28;20041;-77
2023/08/27 08:12:35;;;;;;;0.20;0.20;;;15.00;99.90;;;;;;5029338;28;20072;-81
2023/08/27 08:15:01;;;;;;;0.20;0.20;;;15.00;99.90;;;;;;5030439;28;20538;-79
2023/08/27 08:17:26;;;;;;;0.10;0.10;;;15.00;99.90;;;;;;5042726;28;20041;-79
2023/08/27 08:19:52;;;;;;;0.20;0.20;;;15.10;99.90;;;;;;5049284;28;20497;-79
2023/08/27 08:22:18;;;;;;;0.13;0.13;;;15.10;99.90;;;;;;5028539;28;20503;-80
2023/08/27 08:24:44;;;;;;;0.20;0.20;;;15.20;99.90;;;;;;5046806;28;20059;-80
2023/08/27 08:27:09;;;;;;;0.20;0.20;;;15.20;99.90;;;;;;5030058;28;20485;-80
2023/08/27 08:29:35;;;;;;;0.10;0.10;;;15.30;99.90;;;;;;5030066;28;20052;-79
2023/08/27 08:32:01;;;;;;;0.10;0.10;;;15.40;99.90;;;;;;5043629;28;20091;-79
2023/08/27 08:34:27;;;;;;;0.20;0.20;;;15.40;99.90;;;;;;5030748;28;20477;-79
2023/08/27 08:36:53;;;;;;;0.15;0.15;;;15.50;99.90;;;;;;5024977;28;20044;-79
2023/08/27 08:39:19;;;;;;;0.20;0.20;;;15.60;99.90;;;;;;5024440;28;20049;-77
2023/08/27 08:41:54;;;;;;;0.20;0.20;;;15.70;99.90;;;;;;5031424;28;20044;-77
2023/08/27 08:44:40;;;;;;;0.20;0.20;;;15.70;99.90;;;;;;5023310;28;20044;-76
2023/08/27 08:47:07;;;;;;;0.10;0.10;;;15.80;99.90;;;;;;5044649;28;20053;-78
2023/08/27 08:49:35;;;;;;;0.13;0.13;;;16.00;99.90;;;;;;5026325;28;20435;-77
2023/08/27 08:52:07;;;;;;;0.20;0.20;;;16.00;99.90;;;;;;5027898;28;20041;-77
2023/08/27 08:54:36;;;;;;;0.15;0.15;;;16.10;99.90;;;;;;5024300;28;20397;-78
2023/08/27 08:57:04;;;;;;;0.20;0.20;;;16.10;99.90;;;;;;5027692;28;20111;-78
2023/08/27 08:59:32;;;;;;;0.10;0.10;;;16.10;99.90;;;;;;5028184;28;20657;-76
2023/08/27 09:01:59;;;;;;;0.10;0.10;;;16.20;99.90;;;;;;5026546;28;20055;-77
2023/08/27 09:04:26;;;;;;;0.20;0.20;;;16.20;99.90;;;;;;5028251;28;20054;-80
2023/08/27 09:06:53;;;;;;;0.20;0.20;;;16.20;99.90;;;;;;5029908;28;20669;-77
2023/08/27 09:09:22;;;;;;;0.20;0.20;;;16.30;99.90;;;;;;5030998;28;20106;-77
2023/08/27 09:11:50;;;;;;;0.10;0.10;;;16.30;99.90;;;;;;5048045;28;20056;-76
2023/08/27 09:14:18;;;;;;;0.10;0.10;;;16.40;99.90;;;;;;5025707;28;20049;-76
2023/08/27 09:16:44;;;;;;;0.20;0.20;;;16.50;99.90;;;;;;5028094;28;20088;-77
2023/08/27 09:19:09;;;;;;;0.10;0.10;;;16.60;99.90;;;;;;5027681;28;20523;-77
2023/08/27 09:21:35;;;;;;;0.20;0.20;;;16.70;99.90;;;;;;5046600;28;20143;-77
2023/08/27 09:24:01;;;;;;;0.10;0.10;;;16.80;99.90;;;;;;5030853;28;20041;-77
2023/08/27 09:26:27;;;;;;;0.20;0.20;;;16.80;99.90;;;;;;5043705;28;20041;-78
2023/08/27 09:28:54;;;;;;;0.20;0.20;;;16.90;99.90;;;;;;5026873;28;20396;-78
2023/08/27 09:31:43;;;;;;;0.17;0.17;;;16.90;99.90;;;;;;5045088;28;20106;-79
2023/08/27 09:34:10;;;;;;;0.10;0.10;;;17.10;99.90;;;;;;5024109;28;20106;-77
2023/08/27 09:36:36;;;;;;;0.20;0.20;;;17.10;99.90;;;;;;5027941;28;20048;-78
2023/08/27 09:39:09;;;;;;;0.20;0.20;;;17.20;99.90;;;;;;5043882;28;20053;-78
2023/08/27 09:41:40;;;;;;;0.10;0.10;;;17.30;99.90;;;;;;5026249;28;20127;-78
2023/08/27 09:44:07;;;;;;;0.10;0.10;;;17.40;99.90;;;;;;5027233;28;20131;-79
2023/08/27 09:46:33;;;;;;;0.20;0.20;;;17.50;99.90;;;;;;5026935;28;20131;-77
2023/08/27 09:49:08;;;;;;;0.20;0.20;;;17.50;99.90;;;;;;5046420;28;20068;-77
2023/08/27 09:51:38;;;;;;;0.10;0.10;;;17.60;99.90;;;;;;5029298;28;20036;-78
2023/08/27 09:54:17;;;;;;;0.10;0.10;;;17.70;99.90;;;;;;5045001;28;20041;-77
2023/08/27 09:56:48;;;;;;;0.10;0.10;;;17.80;99.90;;;;;;5046606;28;20053;-78
2023/08/27 09:59:18;;;;;;;0.20;0.20;;;17.90;99.90;;;;;;5028851;28;20037;-78
2023/08/27 10:01:48;;;;;;;0.10;0.10;;;17.90;99.90;;;;;;5027517;28;20534;-77
2023/08/27 10:04:14;;;;;;;0.20;0.20;;;18.00;99.90;;;;;;5025589;28;20084;-78
2023/08/27 10:06:40;;;;;;;0.32;0.32;;;18.10;99.90;;;;;;5030015;28;20346;-77
2023/08/27 10:09:06;;;;;;;0.20;0.20;;;18.20;99.90;;;;;;5047619;28;20456;-77
2023/08/27 10:11:35;;;;;;;0.20;0.20;;;18.30;99.90;;;;;;5029572;28;20507;-78
2023/08/27 10:14:03;;;;;;;0.17;0.17;;;18.30;99.90;;;;;;5025975;28;20056;-76
2023/08/27 10:16:30;;;;;;;0.20;0.20;;;18.40;99.90;;;;;;5044902;28;20373;-77
2023/08/27 10:18:59;;;;;;;0.20;0.20;;;18.50;99.90;;;;;;5025820;28;20041;-77
2023/08/27 10:21:24;;;;;;;0.20;0.20;;;18.50;99.90;;;;;;5029498;28;20037;-77
2023/08/27 10:23:52;;;;;;;0.20;0.20;;;18.50;99.90;;;;;;5025800;28;20047;-77
2023/08/27 10:26:18;;;;;;;0.10;0.10;;;18.50;99.90;;;;;;5047061;28;20045;-77
2023/08/27 10:28:44;;;;;;;0.20;0.20;;;18.50;99.90;;;;;;5028028;28;20224;-77
2023/08/27 10:31:10;;;;;;;0.20;0.20;;;18.60;99.90;;;;;;5028219;28;20074;-77
2023/08/27 10:33:36;;;;;;;0.20;0.20;;;18.70;99.90;;;;;;5046360;28;20119;-77
2023/08/27 10:36:13;;;;;;;0.10;0.10;;;18.70;99.90;;;;;;5025650;28;20037;-77
2023/08/27 10:38:40;;;;;;;0.17;0.17;;;18.70;99.90;;;;;;5046052;28;20040;-77
2023/08/27 10:41:06;;;;;;;0.20;0.20;;;18.80;99.90;;;;;;5028078;28;20028;-77
2023/08/27 10:43:34;;;;;;;0.20;0.20;;;18.90;99.90;;;;;;5028969;28;20083;-77
2023/08/27 10:46:10;;;;;;;0.20;0.20;;;19.00;99.90;;;;;;5040289;28;20449;-77
2023/08/27 10:48:38;;;;;;;0.20;0.20;;;19.10;99.90;;;;;;5046716;28;20041;-77
2023/08/27 10:51:10;;;;;;;0.20;0.20;;;19.10;99.90;;;;;;5028533;28;20080;-78
2023/08/27 10:53:49;;;;;;;0.20;0.20;;;19.20;99.90;;;;;;5028514;28;20048;-77
2023/08/27 10:56:35;;;;;;;0.20;0.20;;;19.30;99.90;;;;;;5027134;28;20106;-77
2023/08/27 10:59:25;;;;;;;0.30;0.20;;;19.50;99.90;;;;;;5045389;28;20828;-77
2023/08/27 11:01:53;;;;;;;0.20;0.20;;;19.60;99.90;;;;;;5021569;28;20046;-77
2023/08/27 11:04:19;;;;;;;0.20;0.20;;;19.80;99.90;;;;;;5041962;28;20064;-76
2023/08/27 11:06:46;;;;;;;0.20;0.20;;;19.90;99.90;;;;;;5024451;28;20499;-77
2023/08/27 11:09:27;;;;;;;0.22;0.22;;;19.80;99.90;;;;;;5018082;28;20087;-77
2023/08/27 11:11:55;;;;;;;0.20;0.20;;;19.80;99.90;;;;;;5024974;28;20049;-77
2023/08/27 11:14:24;;;;;;;0.10;0.10;;;19.80;99.90;;;;;;5044033;28;20415;-79
2023/08/27 11:17:00;;;;;;;0.20;0.20;;;19.70;99.90;;;;;;5025436;28;20374;-78
2023/08/27 11:19:37;;;;;;;0.20;0.20;;;19.70;99.90;;;;;;5043917;28;20048;-78
2023/08/27 11:22:11;;;;;;;0.20;0.20;;;19.60;99.90;;;;;;5027331;28;20053;-77
2023/08/27 11:24:45;;;;;;;0.20;0.20;;;19.50;99.90;;;;;;5026783;28;20073;-80
2023/08/27 11:27:13;;;;;;;0.20;0.20;;;19.30;99.90;;;;;;5022823;28;20090;-80
2023/08/27 11:29:41;;;;;;;0.10;0.10;;;19.20;99.90;;;;;;5023001;28;20492;-80
2023/08/27 11:32:07;;;;;;;0.15;0.15;;;19.10;99.90;;;;;;5044463;28;20095;-82
2023/08/27 11:34:35;;;;;;;0.20;0.20;;;18.90;99.90;;;;;;5038703;28;20451;-80
2023/08/27 11:37:01;;;;;;;0.30;0.30;;;18.90;99.90;;;;;;5028653;28;20064;-80
2023/08/27 11:39:28;;;;;;;0.10;0.10;;;18.80;99.90;;;;;;5024852;28;20401;-80
2023/08/27 11:41:54;;;;;;;0.13;0.13;;;18.80;99.90;;;;;;5028580;28;20049;-80
2023/08/27 11:44:19;;;;;;;0.10;0.10;;;18.80;99.90;;;;;;5047803;28;20033;-81
2023/08/27 11:46:46;;;;;;;0.20;0.20;;;18.80;99.90;;;;;;5029379;28;20127;-80
2023/08/27 11:49:13;;;;;;;0.20;0.20;;;18.80;99.90;;;;;;5046665;28;20057;-80
2023/08/27 11:51:42;;;;;;;0.20;0.20;;;18.80;99.90;;;;;;5048301;28;20476;-79
2023/08/27 11:54:10;;;;;;;0.10;0.10;;;18.70;99.90;;;;;;5028598;28;20071;-79
2023/08/27 11:56:39;;;;;;;0.20;0.20;;;18.70;99.90;;;;;;5046051;28;20451;-79
2023/08/27 11:59:06;;;;;;;0.20;0.20;;;18.70;99.90;;;;;;5023647;28;20484;-79
2023/08/27 12:01:35;;;;;;;0.20;0.20;;;18.60;99.90;;;;;;5028454;28;20044;-79
2023/08/27 12:04:01;;;;;;;0.20;0.20;;;18.50;99.90;;;;;;5043807;28;20049;-79
2023/08/27 12:06:28;;;;;;;0.13;0.13;;;18.40;99.90;;;;;;5028204;28;20514;-79
2023/08/27 12:08:56;;;;;;;0.10;0.10;;;18.30;99.90;;;;;;5022768;28;20064;-79
2023/08/27 12:11:27;;;;;;;0.10;0.10;;;18.30;99.90;;;;;;5046970;28;20062;-79
2023/08/27 12:14:00;;;;;;;0.20;0.20;;;18.20;99.90;;;;;;5030020;28;20412;-79
2023/08/27 12:16:34;;;;;;;0.10;0.10;;;18.20;99.90;;;;;;5028378;28;20056;-79
2023/08/27 12:19:05;;;;;;;0.20;0.20;;;18.10;99.90;;;;;;5030061;28;20033;-79
2023/08/27 12:21:46;;;;;;;0.10;0.10;;;18.00;99.90;;;;;;5031289;28;20049;-79
2023/08/27 12:24:28;;;;;;;0.20;0.20;;;17.80;99.90;;;;;;5050580;28;20056;-79
2023/08/27 12:27:02;;;;;;;0.20;0.20;;;17.80;99.90;;;;;;5041502;28;20561;-79
2023/08/27 12:29:35;;;;;;;0.10;0.10;;;17.80;99.90;;;;;;5033506;28;20044;-79
2023/08/27 12:32:08;;;;;;;0.10;0.10;;;17.60;99.90;;;;;;5031294;28;20690;-79
2023/08/27 12:34:52;;;;;;;0.10;0.10;;;17.50;99.90;;;;;;5051543;28;20134;-79
2023/08/27 12:37:19;;;;;;;0.20;0.20;;;17.40;99.90;;;;;;5050209;28;20045;-79
2023/08/27 12:39:46;;;;;;;0.10;0.10;;;17.30;99.90;;;;;;5051637;28;20126;-79
2023/08/27 12:42:14;;;;;;;0.20;0.20;;;17.20;99.90;;;;;;5030800;28;20102;-79
2023/08/27 12:44:40;;;;;;;0.13;0.13;;;17.20;99.90;;;;;;5032231;28;20036;-79
2023/08/27 12:47:07;;;;;;;0.10;0.10;;;17.20;99.90;;;;;;5031250;28;20163;-79
2023/08/27 12:49:33;;;;;;;0.20;0.20;;;17.20;99.90;;;;;;5051540;28;20167;-79